Terminal Aerodrome Forecast
Issued by NWS Portland, OR

Current Version | Previous Version | Text Only | Print | Product List | Glossary On
Versions: 1 2 3 4 5 6 7 8 9 10 11 12 13 14 15 16 17 18 19
000
FTUS46 KPQR 101732
TAFTTD
TAF
KTTD 101732Z 1018/1118 09012KT P6SM OVC008
     FM102100 10010KT P6SM -RA SCT010 BKN022 OVC040
     FM110400 15007KT P6SM -RA BKN025 OVC040
     FM110600 19009KT P6SM -SHRA BKN025 OVC040=

USA.gov is the U.S. government's official web portal to all federal, state and local government web resources and services.